sensor_id;sensor_type;location;lat;lon;timestamp;P1;durP1;ratioP1;P2;durP2;ratioP2
48613;SDS011;34408;51.426;5.444;2024-03-02T00:01:20;5.93;;;0.90;;
48613;SDS011;34408;51.426;5.444;2024-03-02T00:03:49;3.42;;;1.20;;
48613;SDS011;34408;51.426;5.444;2024-03-02T00:06:18;2.88;;;1.00;;
48613;SDS011;34408;51.426;5.444;2024-03-02T00:08:47;5.30;;;1.33;;
48613;SDS011;34408;51.426;5.444;2024-03-02T00:11:16;4.78;;;1.20;;
48613;SDS011;34408;51.426;5.444;2024-03-02T00:13:45;1.90;;;1.00;;
48613;SDS011;34408;51.426;5.444;2024-03-02T00:16:12;1.15;;;0.60;;
48613;SDS011;34408;51.426;5.444;2024-03-02T00:18:43;3.55;;;1.13;;
48613;SDS011;34408;51.426;5.444;2024-03-02T00:21:11;2.53;;;0.88;;
48613;SDS011;34408;51.426;5.444;2024-03-02T00:23:41;1.48;;;0.60;;
48613;SDS011;34408;51.426;5.444;2024-03-02T00:26:09;1.33;;;0.70;;
48613;SDS011;34408;51.426;5.444;2024-03-02T00:28:39;1.10;;;1.00;;
48613;SDS011;34408;51.426;5.444;2024-03-02T00:31:10;1.88;;;1.05;;
48613;SDS011;34408;51.426;5.444;2024-03-02T00:33:41;0.68;;;0.52;;
48613;SDS011;34408;51.426;5.444;2024-03-02T00:36:12;1.23;;;0.70;;
48613;SDS011;34408;51.426;5.444;2024-03-02T00:38:44;4.45;;;0.75;;
48613;SDS011;34408;51.426;5.444;2024-03-02T00:41:15;1.45;;;0.80;;
48613;SDS011;34408;51.426;5.444;2024-03-02T00:43:47;1.13;;;0.52;;
48613;SDS011;34408;51.426;5.444;2024-03-02T00:46:18;0.98;;;0.57;;
48613;SDS011;34408;51.426;5.444;2024-03-02T00:48:51;1.25;;;0.60;;
48613;SDS011;34408;51.426;5.444;2024-03-02T00:51:24;0.93;;;0.60;;
48613;SDS011;34408;51.426;5.444;2024-03-02T00:53:53;1.73;;;0.60;;
48613;SDS011;34408;51.426;5.444;2024-03-02T00:56:23;0.60;;;0.50;;
48613;SDS011;34408;51.426;5.444;2024-03-02T00:58:51;0.82;;;0.47;;
48613;SDS011;34408;51.426;5.444;2024-03-02T01:01:19;1.42;;;0.50;;
48613;SDS011;34408;51.426;5.444;2024-03-02T01:03:47;0.90;;;0.52;;
48613;SDS011;34408;51.426;5.444;2024-03-02T01:06:16;0.50;;;0.43;;
48613;SDS011;34408;51.426;5.444;2024-03-02T01:08:46;0.85;;;0.55;;
48613;SDS011;34408;51.426;5.444;2024-03-02T01:11:18;0.70;;;0.57;;
48613;SDS011;34408;51.426;5.444;2024-03-02T01:13:49;0.73;;;0.50;;
48613;SDS011;34408;51.426;5.444;2024-03-02T01:16:17;0.38;;;0.38;;
48613;SDS011;34408;51.426;5.444;2024-03-02T01:18:45;0.43;;;0.30;;
48613;SDS011;34408;51.426;5.444;2024-03-02T01:21:13;0.77;;;0.50;;
48613;SDS011;34408;51.426;5.444;2024-03-02T01:23:41;0.38;;;0.38;;
48613;SDS011;34408;51.426;5.444;2024-03-02T01:26:11;0.82;;;0.70;;
48613;SDS011;34408;51.426;5.444;2024-03-02T01:28:38;0.98;;;0.50;;
48613;SDS011;34408;51.426;5.444;2024-03-02T01:31:06;0.38;;;0.38;;
48613;SDS011;34408;51.426;5.444;2024-03-02T01:33:34;0.55;;;0.50;;
48613;SDS011;34408;51.426;5.444;2024-03-02T01:36:02;0.40;;;0.40;;
48613;SDS011;34408;51.426;5.444;2024-03-02T01:38:30;0.43;;;0.40;;
48613;SDS011;34408;51.426;5.444;2024-03-02T01:40:58;0.82;;;0.50;;
48613;SDS011;34408;51.426;5.444;2024-03-02T01:43:27;0.82;;;0.47;;
48613;SDS011;34408;51.426;5.444;2024-03-02T01:45:55;2.65;;;0.63;;
48613;SDS011;34408;51.426;5.444;2024-03-02T01:48:24;0.47;;;0.47;;
48613;SDS011;34408;51.426;5.444;2024-03-02T01:50:51;1.13;;;0.50;;
48613;SDS011;34408;51.426;5.444;2024-03-02T01:53:19;0.50;;;0.50;;
48613;SDS011;34408;51.426;5.444;2024-03-02T01:55:47;0.40;;;0.30;;
48613;SDS011;34408;51.426;5.444;2024-03-02T01:58:15;0.35;;;0.35;;
48613;SDS011;34408;51.426;5.444;2024-03-02T02:00:45;0.82;;;0.43;;
48613;SDS011;34408;51.426;5.444;2024-03-02T02:03:14;0.38;;;0.38;;
48613;SDS011;34408;51.426;5.444;2024-03-02T02:05:42;0.63;;;0.50;;
48613;SDS011;34408;51.426;5.444;2024-03-02T02:08:10;0.77;;;0.30;;
48613;SDS011;34408;51.426;5.444;2024-03-02T02:10:37;1.55;;;0.45;;
48613;SDS011;34408;51.426;5.444;2024-03-02T02:13:05;1.00;;;0.60;;
48613;SDS011;34408;51.426;5.444;2024-03-02T02:15:34;1.35;;;0.70;;
48613;SDS011;34408;51.426;5.444;2024-03-02T02:18:04;0.40;;;0.40;;
48613;SDS011;34408;51.426;5.444;2024-03-02T02:20:32;0.60;;;0.50;;
48613;SDS011;34408;51.426;5.444;2024-03-02T02:23:02;0.52;;;0.32;;
48613;SDS011;34408;51.426;5.444;2024-03-02T02:25:32;0.63;;;0.60;;
48613;SDS011;34408;51.426;5.444;2024-03-02T02:28:00;0.70;;;0.40;;
48613;SDS011;34408;51.426;5.444;2024-03-02T02:30:29;1.45;;;0.50;;
48613;SDS011;34408;51.426;5.444;2024-03-02T02:32:58;0.77;;;0.50;;
48613;SDS011;34408;51.426;5.444;2024-03-02T02:35:26;0.50;;;0.47;;
48613;SDS011;34408;51.426;5.444;2024-03-02T02:37:54;0.65;;;0.32;;
48613;SDS011;34408;51.426;5.444;2024-03-02T02:40:25;0.47;;;0.35;;
48613;SDS011;34408;51.426;5.444;2024-03-02T02:42:55;0.60;;;0.55;;
48613;SDS011;34408;51.426;5.444;2024-03-02T02:45:23;4.20;;;0.65;;
48613;SDS011;34408;51.426;5.444;2024-03-02T02:47:51;0.30;;;0.30;;
48613;SDS011;34408;51.426;5.444;2024-03-02T02:50:19;0.55;;;0.38;;
48613;SDS011;34408;51.426;5.444;2024-03-02T02:52:47;0.50;;;0.50;;
48613;SDS011;34408;51.426;5.444;2024-03-02T02:55:15;0.82;;;0.43;;
48613;SDS011;34408;51.426;5.444;2024-03-02T02:57:44;1.27;;;0.50;;
48613;SDS011;34408;51.426;5.444;2024-03-02T03:00:14;0.68;;;0.43;;
48613;SDS011;34408;51.426;5.444;2024-03-02T03:02:45;0.50;;;0.50;;
48613;SDS011;34408;51.426;5.444;2024-03-02T03:05:17;1.80;;;0.82;;
48613;SDS011;34408;51.426;5.444;2024-03-02T03:07:45;0.47;;;0.47;;
48613;SDS011;34408;51.426;5.444;2024-03-02T03:10:16;2.00;;;0.40;;
48613;SDS011;34408;51.426;5.444;2024-03-02T03:12:46;0.70;;;0.55;;
48613;SDS011;34408;51.426;5.444;2024-03-02T03:15:14;0.60;;;0.55;;
48613;SDS011;34408;51.426;5.444;2024-03-02T03:17:43;0.60;;;0.60;;
48613;SDS011;34408;51.426;5.444;2024-03-02T03:20:12;0.30;;;0.30;;
48613;SDS011;34408;51.426;5.444;2024-03-02T03:22:41;0.40;;;0.40;;
48613;SDS011;34408;51.426;5.444;2024-03-02T03:25:09;2.17;;;0.95;;
48613;SDS011;34408;51.426;5.444;2024-03-02T03:27:37;0.98;;;0.55;;
48613;SDS011;34408;51.426;5.444;2024-03-02T03:30:07;0.50;;;0.50;;
48613;SDS011;34408;51.426;5.444;2024-03-02T03:32:35;0.30;;;0.30;;
48613;SDS011;34408;51.426;5.444;2024-03-02T03:35:03;0.45;;;0.40;;
48613;SDS011;34408;51.426;5.444;2024-03-02T03:37:32;0.65;;;0.40;;
48613;SDS011;34408;51.426;5.444;2024-03-02T03:40:01;0.60;;;0.45;;
48613;SDS011;34408;51.426;5.444;2024-03-02T03:42:33;1.67;;;0.57;;
48613;SDS011;34408;51.426;5.444;2024-03-02T03:45:01;0.57;;;0.30;;
48613;SDS011;34408;51.426;5.444;2024-03-02T03:47:30;0.98;;;0.98;;
48613;SDS011;34408;51.426;5.444;2024-03-02T03:49:58;1.45;;;0.50;;
48613;SDS011;34408;51.426;5.444;2024-03-02T03:52:26;2.45;;;1.30;;
48613;SDS011;34408;51.426;5.444;2024-03-02T03:54:54;0.50;;;0.47;;
48613;SDS011;34408;51.426;5.444;2024-03-02T03:57:22;0.95;;;0.45;;
48613;SDS011;34408;51.426;5.444;2024-03-02T03:59:50;0.30;;;0.30;;
48613;SDS011;34408;51.426;5.444;2024-03-02T04:02:17;1.65;;;0.57;;
48613;SDS011;34408;51.426;5.444;2024-03-02T04:04:47;0.70;;;0.50;;
48613;SDS011;34408;51.426;5.444;2024-03-02T04:07:14;0.65;;;0.43;;
48613;SDS011;34408;51.426;5.444;2024-03-02T04:09:42;0.80;;;0.30;;
48613;SDS011;34408;51.426;5.444;2024-03-02T04:12:10;0.75;;;0.40;;
48613;SDS011;34408;51.426;5.444;2024-03-02T04:14:39;0.40;;;0.40;;
48613;SDS011;34408;51.426;5.444;2024-03-02T04:17:08;0.32;;;0.32;;
48613;SDS011;34408;51.426;5.444;2024-03-02T04:19:36;0.30;;;0.30;;
48613;SDS011;34408;51.426;5.444;2024-03-02T04:22:05;0.40;;;0.40;;
48613;SDS011;34408;51.426;5.444;2024-03-02T04:24:46;0.77;;;0.50;;
48613;SDS011;34408;51.426;5.444;2024-03-02T04:27:14;0.98;;;0.43;;
48613;SDS011;34408;51.426;5.444;2024-03-02T04:29:42;0.22;;;0.22;;
48613;SDS011;34408;51.426;5.444;2024-03-02T04:32:10;0.73;;;0.38;;
48613;SDS011;34408;51.426;5.444;2024-03-02T04:34:37;0.40;;;0.40;;
48613;SDS011;34408;51.426;5.444;2024-03-02T04:37:07;2.00;;;0.50;;
48613;SDS011;34408;51.426;5.444;2024-03-02T04:39:34;0.77;;;0.55;;
48613;SDS011;34408;51.426;5.444;2024-03-02T04:42:02;0.40;;;0.38;;
48613;SDS011;34408;51.426;5.444;2024-03-02T04:44:30;0.30;;;0.30;;
48613;SDS011;34408;51.426;5.444;2024-03-02T04:46:58;1.05;;;0.30;;
48613;SDS011;34408;51.426;5.444;2024-03-02T04:49:26;1.58;;;0.68;;
48613;SDS011;34408;51.426;5.444;2024-03-02T04:51:54;0.85;;;0.57;;
48613;SDS011;34408;51.426;5.444;2024-03-02T04:54:23;1.75;;;0.50;;
48613;SDS011;34408;51.426;5.444;2024-03-02T04:56:51;1.48;;;0.50;;
48613;SDS011;34408;51.426;5.444;2024-03-02T04:59:19;1.15;;;0.43;;
48613;SDS011;34408;51.426;5.444;2024-03-02T05:01:47;1.67;;;0.65;;
48613;SDS011;34408;51.426;5.444;2024-03-02T05:04:15;2.08;;;0.50;;
48613;SDS011;34408;51.426;5.444;2024-03-02T05:06:43;1.77;;;0.93;;
48613;SDS011;34408;51.426;5.444;2024-03-02T05:09:11;0.70;;;0.47;;
48613;SDS011;34408;51.426;5.444;2024-03-02T05:11:45;0.93;;;0.70;;
48613;SDS011;34408;51.426;5.444;2024-03-02T05:14:49;0.90;;;0.47;;
48613;SDS011;34408;51.426;5.444;2024-03-02T05:17:16;1.48;;;0.50;;
48613;SDS011;34408;51.426;5.444;2024-03-02T05:19:44;0.30;;;0.30;;
48613;SDS011;34408;51.426;5.444;2024-03-02T05:22:12;1.10;;;0.52;;
48613;SDS011;34408;51.426;5.444;2024-03-02T05:24:40;2.08;;;0.60;;
48613;SDS011;34408;51.426;5.444;2024-03-02T05:27:09;1.55;;;0.40;;
48613;SDS011;34408;51.426;5.444;2024-03-02T05:29:37;1.02;;;0.50;;
48613;SDS011;34408;51.426;5.444;2024-03-02T05:32:05;2.08;;;0.70;;
48613;SDS011;34408;51.426;5.444;2024-03-02T05:34:33;0.68;;;0.50;;
48613;SDS011;34408;51.426;5.444;2024-03-02T05:37:01;0.70;;;0.68;;
48613;SDS011;34408;51.426;5.444;2024-03-02T05:39:29;0.50;;;0.30;;
48613;SDS011;34408;51.426;5.444;2024-03-02T05:41:57;3.03;;;0.65;;
48613;SDS011;34408;51.426;5.444;2024-03-02T05:44:26;1.27;;;1.10;;
48613;SDS011;34408;51.426;5.444;2024-03-02T05:46:54;1.38;;;0.50;;
48613;SDS011;34408;51.426;5.444;2024-03-02T05:49:21;1.15;;;0.40;;
48613;SDS011;34408;51.426;5.444;2024-03-02T05:51:49;1.27;;;0.43;;
48613;SDS011;34408;51.426;5.444;2024-03-02T05:54:17;0.52;;;0.30;;
48613;SDS011;34408;51.426;5.444;2024-03-02T05:56:45;0.38;;;0.32;;
48613;SDS011;34408;51.426;5.444;2024-03-02T05:59:13;1.55;;;0.52;;
48613;SDS011;34408;51.426;5.444;2024-03-02T06:01:44;9.80;;;0.93;;
48613;SDS011;34408;51.426;5.444;2024-03-02T06:04:12;1.38;;;0.50;;
48613;SDS011;34408;51.426;5.444;2024-03-02T06:06:41;0.30;;;0.30;;
48613;SDS011;34408;51.426;5.444;2024-03-02T06:09:09;0.20;;;0.20;;
48613;SDS011;34408;51.426;5.444;2024-03-02T06:11:39;0.40;;;0.40;;
48613;SDS011;34408;51.426;5.444;2024-03-02T06:14:08;0.90;;;0.55;;
48613;SDS011;34408;51.426;5.444;2024-03-02T06:16:36;0.63;;;0.30;;
48613;SDS011;34408;51.426;5.444;2024-03-02T06:19:05;0.57;;;0.40;;
48613;SDS011;34408;51.426;5.444;2024-03-02T06:21:33;0.80;;;0.40;;
48613;SDS011;34408;51.426;5.444;2024-03-02T06:24:01;0.65;;;0.65;;
48613;SDS011;34408;51.426;5.444;2024-03-02T06:26:29;2.83;;;1.27;;
48613;SDS011;34408;51.426;5.444;2024-03-02T06:28:58;2.50;;;0.82;;
48613;SDS011;34408;51.426;5.444;2024-03-02T06:31:25;1.45;;;0.43;;
48613;SDS011;34408;51.426;5.444;2024-03-02T06:33:53;3.03;;;0.50;;
48613;SDS011;34408;51.426;5.444;2024-03-02T06:36:23;0.75;;;0.55;;
48613;SDS011;34408;51.426;5.444;2024-03-02T06:38:50;1.10;;;0.57;;
48613;SDS011;34408;51.426;5.444;2024-03-02T06:41:18;1.75;;;0.65;;
48613;SDS011;34408;51.426;5.444;2024-03-02T06:43:46;0.45;;;0.43;;
48613;SDS011;34408;51.426;5.444;2024-03-02T06:46:14;0.93;;;0.50;;
48613;SDS011;34408;51.426;5.444;2024-03-02T06:48:41;1.63;;;0.52;;
48613;SDS011;34408;51.426;5.444;2024-03-02T06:51:09;0.63;;;0.60;;
48613;SDS011;34408;51.426;5.444;2024-03-02T06:53:39;2.40;;;0.82;;
48613;SDS011;34408;51.426;5.444;2024-03-02T06:56:07;2.40;;;0.60;;
48613;SDS011;34408;51.426;5.444;2024-03-02T06:58:35;1.58;;;0.50;;
48613;SDS011;34408;51.426;5.444;2024-03-02T07:01:03;1.73;;;1.02;;
48613;SDS011;34408;51.426;5.444;2024-03-02T07:03:31;3.60;;;0.52;;
48613;SDS011;34408;51.426;5.444;2024-03-02T07:05:59;1.40;;;0.52;;
48613;SDS011;34408;51.426;5.444;2024-03-02T07:08:27;3.00;;;0.90;;
48613;SDS011;34408;51.426;5.444;2024-03-02T07:10:56;3.60;;;0.73;;
48613;SDS011;34408;51.426;5.444;2024-03-02T07:13:24;1.88;;;0.57;;
48613;SDS011;34408;51.426;5.444;2024-03-02T07:15:52;3.88;;;0.60;;
48613;SDS011;34408;51.426;5.444;2024-03-02T07:18:49;3.30;;;0.70;;
48613;SDS011;34408;51.426;5.444;2024-03-02T07:21:18;1.55;;;0.55;;
48613;SDS011;34408;51.426;5.444;2024-03-02T07:23:47;3.85;;;0.70;;
48613;SDS011;34408;51.426;5.444;2024-03-02T07:26:16;3.58;;;0.85;;
48613;SDS011;34408;51.426;5.444;2024-03-02T07:28:48;1.45;;;0.57;;
48613;SDS011;34408;51.426;5.444;2024-03-02T07:31:16;3.05;;;0.73;;
48613;SDS011;34408;51.426;5.444;2024-03-02T07:33:44;2.05;;;0.47;;
48613;SDS011;34408;51.426;5.444;2024-03-02T07:36:13;1.25;;;0.68;;
48613;SDS011;34408;51.426;5.444;2024-03-02T07:38:41;1.48;;;0.50;;
48613;SDS011;34408;51.426;5.444;2024-03-02T07:41:11;2.80;;;0.80;;
48613;SDS011;34408;51.426;5.444;2024-03-02T07:43:40;2.10;;;0.52;;
48613;SDS011;34408;51.426;5.444;2024-03-02T07:46:08;1.98;;;0.82;;
48613;SDS011;34408;51.426;5.444;2024-03-02T07:48:36;1.00;;;0.80;;
48613;SDS011;34408;51.426;5.444;2024-03-02T07:51:04;2.45;;;0.68;;
48613;SDS011;34408;51.426;5.444;2024-03-02T07:53:32;0.55;;;0.50;;
48613;SDS011;34408;51.426;5.444;2024-03-02T07:56:00;5.22;;;1.33;;
48613;SDS011;34408;51.426;5.444;2024-03-02T07:58:29;3.33;;;0.65;;
48613;SDS011;34408;51.426;5.444;2024-03-02T08:00:59;1.95;;;0.60;;
48613;SDS011;34408;51.426;5.444;2024-03-02T08:03:28;1.42;;;0.77;;
48613;SDS011;34408;51.426;5.444;2024-03-02T08:05:56;1.13;;;0.60;;
48613;SDS011;34408;51.426;5.444;2024-03-02T08:08:23;1.45;;;1.15;;
48613;SDS011;34408;51.426;5.444;2024-03-02T08:10:51;2.88;;;0.90;;
48613;SDS011;34408;51.426;5.444;2024-03-02T08:13:19;1.48;;;1.30;;
48613;SDS011;34408;51.426;5.444;2024-03-02T08:15:47;1.33;;;0.70;;
48613;SDS011;34408;51.426;5.444;2024-03-02T08:18:16;2.88;;;0.70;;
48613;SDS011;34408;51.426;5.444;2024-03-02T08:20:44;1.63;;;1.00;;
48613;SDS011;34408;51.426;5.444;2024-03-02T08:23:12;2.95;;;0.82;;
48613;SDS011;34408;51.426;5.444;2024-03-02T08:25:40;9.32;;;1.98;;
48613;SDS011;34408;51.426;5.444;2024-03-02T08:28:09;5.93;;;0.73;;
48613;SDS011;34408;51.426;5.444;2024-03-02T08:30:36;4.38;;;0.98;;
48613;SDS011;34408;51.426;5.444;2024-03-02T08:33:04;8.65;;;1.15;;
48613;SDS011;34408;51.426;5.444;2024-03-02T08:35:34;3.47;;;0.82;;
48613;SDS011;34408;51.426;5.444;2024-03-02T08:38:02;3.85;;;0.80;;
48613;SDS011;34408;51.426;5.444;2024-03-02T08:40:31;6.35;;;1.25;;
48613;SDS011;34408;51.426;5.444;2024-03-02T08:42:59;3.33;;;1.10;;
48613;SDS011;34408;51.426;5.444;2024-03-02T08:45:27;3.83;;;1.15;;
48613;SDS011;34408;51.426;5.444;2024-03-02T08:47:55;2.70;;;1.15;;
48613;SDS011;34408;51.426;5.444;2024-03-02T08:50:23;5.15;;;0.98;;
48613;SDS011;34408;51.426;5.444;2024-03-02T08:52:52;6.63;;;2.45;;
48613;SDS011;34408;51.426;5.444;2024-03-02T08:55:20;6.20;;;1.08;;
48613;SDS011;34408;51.426;5.444;2024-03-02T08:57:47;3.88;;;1.00;;
48613;SDS011;34408;51.426;5.444;2024-03-02T09:00:17;2.25;;;0.70;;
48613;SDS011;34408;51.426;5.444;2024-03-02T09:02:45;2.38;;;1.10;;
48613;SDS011;34408;51.426;5.444;2024-03-02T09:05:13;2.85;;;0.90;;
48613;SDS011;34408;51.426;5.444;2024-03-02T09:07:41;2.45;;;0.80;;
48613;SDS011;34408;51.426;5.444;2024-03-02T09:10:10;3.30;;;0.90;;
48613;SDS011;34408;51.426;5.444;2024-03-02T09:12:38;3.20;;;0.90;;
48613;SDS011;34408;51.426;5.444;2024-03-02T09:15:06;2.97;;;1.88;;
48613;SDS011;34408;51.426;5.444;2024-03-02T09:17:35;3.03;;;0.95;;
48613;SDS011;34408;51.426;5.444;2024-03-02T09:20:03;2.40;;;0.85;;
48613;SDS011;34408;51.426;5.444;2024-03-02T09:22:31;3.47;;;0.73;;
48613;SDS011;34408;51.426;5.444;2024-03-02T09:24:59;4.45;;;1.13;;
48613;SDS011;34408;51.426;5.444;2024-03-02T09:27:28;8.77;;;1.38;;
48613;SDS011;34408;51.426;5.444;2024-03-02T09:29:56;3.77;;;1.40;;
48613;SDS011;34408;51.426;5.444;2024-03-02T09:32:24;5.72;;;1.52;;
48613;SDS011;34408;51.426;5.444;2024-03-02T09:34:52;3.28;;;0.95;;
48613;SDS011;34408;51.426;5.444;2024-03-02T09:37:22;2.90;;;0.77;;
48613;SDS011;34408;51.426;5.444;2024-03-02T09:39:50;1.83;;;0.80;;
48613;SDS011;34408;51.426;5.444;2024-03-02T09:42:18;5.82;;;0.93;;
48613;SDS011;34408;51.426;5.444;2024-03-02T09:44:51;3.95;;;0.80;;
48613;SDS011;34408;51.426;5.444;2024-03-02T09:47:19;4.78;;;1.15;;
48613;SDS011;34408;51.426;5.444;2024-03-02T09:49:47;2.90;;;0.90;;
48613;SDS011;34408;51.426;5.444;2024-03-02T09:52:15;2.90;;;1.02;;
48613;SDS011;34408;51.426;5.444;2024-03-02T09:54:43;2.17;;;0.70;;
48613;SDS011;34408;51.426;5.444;2024-03-02T09:57:11;3.05;;;0.75;;
48613;SDS011;34408;51.426;5.444;2024-03-02T09:59:39;5.72;;;0.82;;
48613;SDS011;34408;51.426;5.444;2024-03-02T10:02:08;4.28;;;1.17;;
48613;SDS011;34408;51.426;5.444;2024-03-02T10:04:36;6.18;;;0.90;;
48613;SDS011;34408;51.426;5.444;2024-03-02T10:07:11;5.65;;;0.95;;
48613;SDS011;34408;51.426;5.444;2024-03-02T10:09:40;4.23;;;0.90;;
48613;SDS011;34408;51.426;5.444;2024-03-02T10:12:10;3.05;;;0.77;;
48613;SDS011;34408;51.426;5.444;2024-03-02T10:14:39;6.75;;;1.00;;
48613;SDS011;34408;51.426;5.444;2024-03-02T10:17:09;2.70;;;1.00;;
48613;SDS011;34408;51.426;5.444;2024-03-02T10:19:38;4.13;;;0.88;;
48613;SDS011;34408;51.426;5.444;2024-03-02T10:22:07;5.28;;;1.15;;
48613;SDS011;34408;51.426;5.444;2024-03-02T10:24:36;4.68;;;1.33;;
48613;SDS011;34408;51.426;5.444;2024-03-02T10:27:09;8.80;;;1.33;;
48613;SDS011;34408;51.426;5.444;2024-03-02T10:29:38;2.97;;;0.73;;
48613;SDS011;34408;51.426;5.444;2024-03-02T10:32:11;2.00;;;0.80;;
48613;SDS011;34408;51.426;5.444;2024-03-02T10:34:40;5.57;;;1.52;;
48613;SDS011;34408;51.426;5.444;2024-03-02T10:37:08;3.80;;;1.02;;
48613;SDS011;34408;51.426;5.444;2024-03-02T10:39:39;4.18;;;1.20;;
48613;SDS011;34408;51.426;5.444;2024-03-02T10:42:07;2.38;;;0.93;;
48613;SDS011;34408;51.426;5.444;2024-03-02T10:44:36;4.18;;;1.05;;
48613;SDS011;34408;51.426;5.444;2024-03-02T10:47:04;3.85;;;1.08;;
48613;SDS011;34408;51.426;5.444;2024-03-02T10:49:34;7.22;;;1.00;;
48613;SDS011;34408;51.426;5.444;2024-03-02T10:52:05;3.95;;;1.23;;
48613;SDS011;34408;51.426;5.444;2024-03-02T10:54:35;3.60;;;1.20;;
48613;SDS011;34408;51.426;5.444;2024-03-02T10:57:07;1.98;;;1.00;;
48613;SDS011;34408;51.426;5.444;2024-03-02T10:59:37;2.33;;;1.27;;
48613;SDS011;34408;51.426;5.444;2024-03-02T11:02:11;3.95;;;0.98;;
48613;SDS011;34408;51.426;5.444;2024-03-02T11:04:42;3.83;;;0.80;;
48613;SDS011;34408;51.426;5.444;2024-03-02T11:07:12;2.97;;;0.88;;
48613;SDS011;34408;51.426;5.444;2024-03-02T11:09:40;1.05;;;0.70;;
48613;SDS011;34408;51.426;5.444;2024-03-02T11:12:12;1.33;;;0.63;;
48613;SDS011;34408;51.426;5.444;2024-03-02T11:14:46;3.40;;;1.10;;
48613;SDS011;34408;51.426;5.444;2024-03-02T11:17:14;6.82;;;1.48;;
48613;SDS011;34408;51.426;5.444;2024-03-02T11:19:45;2.70;;;0.75;;
48613;SDS011;34408;51.426;5.444;2024-03-02T11:22:14;4.72;;;1.10;;
48613;SDS011;34408;51.426;5.444;2024-03-02T11:24:47;6.13;;;1.25;;
48613;SDS011;34408;51.426;5.444;2024-03-02T11:27:20;3.25;;;1.15;;
48613;SDS011;34408;51.426;5.444;2024-03-02T11:33:24;4.60;;;1.40;;
48613;SDS011;34408;51.426;5.444;2024-03-02T11:35:58;3.90;;;1.52;;
48613;SDS011;34408;51.426;5.444;2024-03-02T11:38:29;7.03;;;1.20;;
48613;SDS011;34408;51.426;5.444;2024-03-02T11:40:59;5.55;;;1.08;;
48613;SDS011;34408;51.426;5.444;2024-03-02T11:43:27;7.25;;;1.02;;
48613;SDS011;34408;51.426;5.444;2024-03-02T11:45:59;2.40;;;1.00;;
48613;SDS011;34408;51.426;5.444;2024-03-02T11:48:30;5.03;;;1.27;;
48613;SDS011;34408;51.426;5.444;2024-03-02T11:51:00;3.25;;;1.27;;
48613;SDS011;34408;51.426;5.444;2024-03-02T11:53:28;3.67;;;1.00;;
48613;SDS011;34408;51.426;5.444;2024-03-02T11:56:01;6.53;;;1.63;;
48613;SDS011;34408;51.426;5.444;2024-03-02T11:58:32;6.50;;;1.30;;
48613;SDS011;34408;51.426;5.444;2024-03-02T12:01:03;3.28;;;1.10;;
48613;SDS011;34408;51.426;5.444;2024-03-02T12:03:32;4.55;;;1.05;;
48613;SDS011;34408;51.426;5.444;2024-03-02T12:06:03;4.20;;;1.10;;
48613;SDS011;34408;51.426;5.444;2024-03-02T12:08:32;10.13;;;1.30;;
48613;SDS011;34408;51.426;5.444;2024-03-02T12:11:01;4.43;;;1.20;;
48613;SDS011;34408;51.426;5.444;2024-03-02T12:13:30;4.13;;;1.35;;
48613;SDS011;34408;51.426;5.444;2024-03-02T12:15:59;4.57;;;1.20;;
48613;SDS011;34408;51.426;5.444;2024-03-02T12:18:27;4.30;;;1.17;;
48613;SDS011;34408;51.426;5.444;2024-03-02T12:20:55;3.45;;;0.82;;
48613;SDS011;34408;51.426;5.444;2024-03-02T12:23:26;4.18;;;1.08;;
48613;SDS011;34408;51.426;5.444;2024-03-02T12:25:54;3.70;;;1.30;;
48613;SDS011;34408;51.426;5.444;2024-03-02T12:28:22;4.82;;;1.73;;
48613;SDS011;34408;51.426;5.444;2024-03-02T12:30:50;3.92;;;1.35;;
48613;SDS011;34408;51.426;5.444;2024-03-02T12:33:19;4.75;;;0.90;;
48613;SDS011;34408;51.426;5.444;2024-03-02T12:35:48;4.07;;;1.15;;
48613;SDS011;34408;51.426;5.444;2024-03-02T12:38:16;3.78;;;1.67;;
48613;SDS011;34408;51.426;5.444;2024-03-02T12:40:45;4.60;;;1.17;;
48613;SDS011;34408;51.426;5.444;2024-03-02T12:43:15;10.45;;;1.73;;
48613;SDS011;34408;51.426;5.444;2024-03-02T12:45:43;4.68;;;1.13;;
48613;SDS011;34408;51.426;5.444;2024-03-02T12:48:11;5.95;;;1.20;;
48613;SDS011;34408;51.426;5.444;2024-03-02T12:50:41;3.75;;;1.33;;
48613;SDS011;34408;51.426;5.444;2024-03-02T12:53:13;5.22;;;1.50;;
48613;SDS011;34408;51.426;5.444;2024-03-02T12:55:42;8.82;;;2.15;;
48613;SDS011;34408;51.426;5.444;2024-03-02T12:58:18;12.52;;;1.98;;
48613;SDS011;34408;51.426;5.444;2024-03-02T13:00:47;10.40;;;3.15;;
48613;SDS011;34408;51.426;5.444;2024-03-02T13:03:17;10.48;;;2.40;;
48613;SDS011;34408;51.426;5.444;2024-03-02T13:05:50;7.63;;;2.13;;
48613;SDS011;34408;51.426;5.444;2024-03-02T13:08:20;12.32;;;2.92;;
48613;SDS011;34408;51.426;5.444;2024-03-02T13:10:48;8.35;;;2.10;;
48613;SDS011;34408;51.426;5.444;2024-03-02T13:13:17;7.05;;;2.33;;
48613;SDS011;34408;51.426;5.444;2024-03-02T13:15:45;8.15;;;1.60;;
48613;SDS011;34408;51.426;5.444;2024-03-02T13:18:13;5.32;;;1.38;;
48613;SDS011;34408;51.426;5.444;2024-03-02T13:20:41;6.28;;;1.75;;
48613;SDS011;34408;51.426;5.444;2024-03-02T13:23:09;5.20;;;1.58;;
48613;SDS011;34408;51.426;5.444;2024-03-02T13:25:37;6.15;;;1.60;;
48613;SDS011;34408;51.426;5.444;2024-03-02T13:28:05;5.82;;;1.40;;
48613;SDS011;34408;51.426;5.444;2024-03-02T13:30:34;5.78;;;1.40;;
48613;SDS011;34408;51.426;5.444;2024-03-02T13:33:02;4.30;;;1.35;;
48613;SDS011;34408;51.426;5.444;2024-03-02T13:35:31;6.53;;;1.45;;
48613;SDS011;34408;51.426;5.444;2024-03-02T13:37:58;3.97;;;1.23;;
48613;SDS011;34408;51.426;5.444;2024-03-02T13:40:26;2.97;;;1.02;;
48613;SDS011;34408;51.426;5.444;2024-03-02T13:42:55;2.95;;;1.10;;
48613;SDS011;34408;51.426;5.444;2024-03-02T13:45:23;6.05;;;1.25;;
48613;SDS011;34408;51.426;5.444;2024-03-02T13:47:52;3.80;;;1.20;;
48613;SDS011;34408;51.426;5.444;2024-03-02T13:50:20;2.85;;;1.25;;
48613;SDS011;34408;51.426;5.444;2024-03-02T13:52:48;5.13;;;1.45;;
48613;SDS011;34408;51.426;5.444;2024-03-02T13:55:16;2.67;;;1.13;;
48613;SDS011;34408;51.426;5.444;2024-03-02T13:57:43;3.85;;;1.00;;
48613;SDS011;34408;51.426;5.444;2024-03-02T14:00:12;2.25;;;1.20;;
48613;SDS011;34408;51.426;5.444;2024-03-02T14:02:40;7.32;;;1.23;;
48613;SDS011;34408;51.426;5.444;2024-03-02T14:05:10;5.05;;;1.25;;
48613;SDS011;34408;51.426;5.444;2024-03-02T14:07:38;2.55;;;1.00;;
48613;SDS011;34408;51.426;5.444;2024-03-02T14:10:06;3.92;;;1.38;;
48613;SDS011;34408;51.426;5.444;2024-03-02T14:12:34;8.75;;;1.73;;
48613;SDS011;34408;51.426;5.444;2024-03-02T14:15:02;5.10;;;1.30;;
48613;SDS011;34408;51.426;5.444;2024-03-02T14:17:30;10.75;;;1.77;;
48613;SDS011;34408;51.426;5.444;2024-03-02T14:19:58;5.95;;;1.35;;
48613;SDS011;34408;51.426;5.444;2024-03-02T14:22:28;2.90;;;1.40;;
48613;SDS011;34408;51.426;5.444;2024-03-02T14:24:55;4.18;;;1.05;;
48613;SDS011;34408;51.426;5.444;2024-03-02T14:27:23;3.67;;;1.02;;
48613;SDS011;34408;51.426;5.444;2024-03-02T14:30:10;1.90;;;1.05;;
48613;SDS011;34408;51.426;5.444;2024-03-02T14:32:39;3.10;;;0.93;;
48613;SDS011;34408;51.426;5.444;2024-03-02T14:35:07;3.80;;;1.30;;
48613;SDS011;34408;51.426;5.444;2024-03-02T14:37:39;4.70;;;1.13;;
48613;SDS011;34408;51.426;5.444;2024-03-02T14:40:07;5.22;;;1.00;;
48613;SDS011;34408;51.426;5.444;2024-03-02T14:42:36;3.08;;;1.40;;
48613;SDS011;34408;51.426;5.444;2024-03-02T14:45:05;3.67;;;0.90;;
48613;SDS011;34408;51.426;5.444;2024-03-02T14:47:33;5.40;;;0.98;;
48613;SDS011;34408;51.426;5.444;2024-03-02T14:50:01;2.58;;;0.90;;
48613;SDS011;34408;51.426;5.444;2024-03-02T14:52:32;3.55;;;1.10;;
48613;SDS011;34408;51.426;5.444;2024-03-02T14:55:01;2.20;;;1.05;;
48613;SDS011;34408;51.426;5.444;2024-03-02T14:57:30;3.80;;;1.05;;
48613;SDS011;34408;51.426;5.444;2024-03-02T14:59:58;5.13;;;1.10;;
48613;SDS011;34408;51.426;5.444;2024-03-02T15:02:26;1.08;;;0.80;;